sensor_id;sensor_type;location;lat;lon;timestamp;P1;durP1;ratioP1;P2;durP2;ratioP2
81960;SDS011;71462;50.650;6.888;2024-03-23T00:53:55;16.42;;;6.10;;
81960;SDS011;71462;50.650;6.888;2024-03-23T00:56:21;16.48;;;6.25;;
81960;SDS011;71462;50.650;6.888;2024-03-23T00:58:47;18.20;;;8.23;;
81960;SDS011;71462;50.650;6.888;2024-03-23T01:01:13;20.50;;;6.28;;
81960;SDS011;71462;50.650;6.888;2024-03-23T01:03:40;17.67;;;7.13;;
81960;SDS011;71462;50.650;6.888;2024-03-23T01:08:34;18.17;;;7.20;;
81960;SDS011;71462;50.650;6.888;2024-03-23T01:11:00;21.55;;;6.53;;
81960;SDS011;71462;50.650;6.888;2024-03-23T01:13:28;18.05;;;7.70;;
81960;SDS011;71462;50.650;6.888;2024-03-23T01:15:54;19.92;;;7.78;;
81960;SDS011;71462;50.650;6.888;2024-03-23T01:18:23;20.52;;;7.82;;
81960;SDS011;71462;50.650;6.888;2024-03-23T01:20:51;21.90;;;8.18;;
81960;SDS011;71462;50.650;6.888;2024-03-23T01:23:18;19.83;;;7.13;;
81960;SDS011;71462;50.650;6.888;2024-03-23T01:25:52;17.70;;;6.78;;
81960;SDS011;71462;50.650;6.888;2024-03-23T01:28:19;19.27;;;7.47;;
81960;SDS011;71462;50.650;6.888;2024-03-23T01:30:45;23.60;;;7.32;;
81960;SDS011;71462;50.650;6.888;2024-03-23T01:33:12;20.50;;;7.43;;
81960;SDS011;71462;50.650;6.888;2024-03-23T01:35:38;19.05;;;6.90;;
81960;SDS011;71462;50.650;6.888;2024-03-23T01:38:08;19.23;;;8.00;;
81960;SDS011;71462;50.650;6.888;2024-03-23T01:40:34;22.67;;;8.10;;
81960;SDS011;71462;50.650;6.888;2024-03-23T01:43:03;20.45;;;7.38;;
81960;SDS011;71462;50.650;6.888;2024-03-23T01:45:33;20.05;;;8.23;;
81960;SDS011;71462;50.650;6.888;2024-03-23T01:48:00;21.83;;;8.57;;
81960;SDS011;71462;50.650;6.888;2024-03-23T01:50:27;18.33;;;8.30;;
81960;SDS011;71462;50.650;6.888;2024-03-23T01:52:55;19.88;;;8.93;;
81960;SDS011;71462;50.650;6.888;2024-03-23T01:55:23;20.30;;;8.60;;
81960;SDS011;71462;50.650;6.888;2024-03-23T01:57:50;22.40;;;8.73;;
81960;SDS011;71462;50.650;6.888;2024-03-23T02:00:18;18.23;;;8.27;;
81960;SDS011;71462;50.650;6.888;2024-03-23T02:02:45;23.63;;;9.40;;
81960;SDS011;71462;50.650;6.888;2024-03-23T02:05:11;23.65;;;9.55;;
81960;SDS011;71462;50.650;6.888;2024-03-23T02:07:38;20.77;;;9.05;;
81960;SDS011;71462;50.650;6.888;2024-03-23T02:10:05;20.63;;;9.52;;
81960;SDS011;71462;50.650;6.888;2024-03-23T02:12:33;21.25;;;8.38;;
81960;SDS011;71462;50.650;6.888;2024-03-23T02:14:58;20.13;;;9.00;;
81960;SDS011;71462;50.650;6.888;2024-03-23T02:17:27;22.73;;;10.02;;
81960;SDS011;71462;50.650;6.888;2024-03-23T02:19:53;20.02;;;8.65;;
81960;SDS011;71462;50.650;6.888;2024-03-23T02:22:20;14.43;;;5.93;;
81960;SDS011;71462;50.650;6.888;2024-03-23T02:27:13;12.50;;;3.30;;
81960;SDS011;71462;50.650;6.888;2024-03-23T02:29:39;10.32;;;2.78;;
81960;SDS011;71462;50.650;6.888;2024-03-23T02:32:06;5.05;;;2.75;;
81960;SDS011;71462;50.650;6.888;2024-03-23T02:34:34;10.25;;;3.42;;
81960;SDS011;71462;50.650;6.888;2024-03-23T02:37:01;5.63;;;2.60;;
81960;SDS011;71462;50.650;6.888;2024-03-23T02:41:55;6.47;;;2.75;;
81960;SDS011;71462;50.650;6.888;2024-03-23T02:44:21;8.35;;;2.80;;
81960;SDS011;71462;50.650;6.888;2024-03-23T02:46:48;5.95;;;2.70;;
81960;SDS011;71462;50.650;6.888;2024-03-23T02:51:40;9.50;;;3.15;;
81960;SDS011;71462;50.650;6.888;2024-03-23T02:54:06;5.13;;;2.58;;
81960;SDS011;71462;50.650;6.888;2024-03-23T02:56:33;8.80;;;2.90;;
81960;SDS011;71462;50.650;6.888;2024-03-23T03:01:27;7.90;;;2.13;;
81960;SDS011;71462;50.650;6.888;2024-03-23T03:06:23;7.28;;;2.08;;
81960;SDS011;71462;50.650;6.888;2024-03-23T03:08:49;6.35;;;1.90;;
81960;SDS011;71462;50.650;6.888;2024-03-23T03:11:16;6.03;;;2.15;;
81960;SDS011;71462;50.650;6.888;2024-03-23T03:16:10;8.50;;;2.30;;
81960;SDS011;71462;50.650;6.888;2024-03-23T03:18:35;13.85;;;3.08;;
81960;SDS011;71462;50.650;6.888;2024-03-23T03:21:02;9.02;;;2.13;;
81960;SDS011;71462;50.650;6.888;2024-03-23T03:23:30;9.88;;;2.38;;
81960;SDS011;71462;50.650;6.888;2024-03-23T03:25:57;13.50;;;2.55;;
81960;SDS011;71462;50.650;6.888;2024-03-23T03:28:24;8.60;;;2.30;;
81960;SDS011;71462;50.650;6.888;2024-03-23T03:30:55;11.88;;;2.30;;
81960;SDS011;71462;50.650;6.888;2024-03-23T03:35:49;9.50;;;2.30;;
81960;SDS011;71462;50.650;6.888;2024-03-23T03:38:17;8.40;;;2.22;;
81960;SDS011;71462;50.650;6.888;2024-03-23T03:40:44;8.02;;;2.30;;
81960;SDS011;71462;50.650;6.888;2024-03-23T03:43:10;10.60;;;2.53;;
81960;SDS011;71462;50.650;6.888;2024-03-23T03:45:37;11.07;;;2.50;;
81960;SDS011;71462;50.650;6.888;2024-03-23T03:50:31;7.50;;;2.70;;
81960;SDS011;71462;50.650;6.888;2024-03-23T03:52:57;8.77;;;2.65;;
81960;SDS011;71462;50.650;6.888;2024-03-23T03:55:24;9.25;;;2.40;;
81960;SDS011;71462;50.650;6.888;2024-03-23T04:00:16;8.10;;;2.75;;
81960;SDS011;71462;50.650;6.888;2024-03-23T04:02:42;8.80;;;2.83;;
81960;SDS011;71462;50.650;6.888;2024-03-23T04:05:09;13.90;;;4.10;;
81960;SDS011;71462;50.650;6.888;2024-03-23T04:10:03;7.43;;;2.50;;
81960;SDS011;71462;50.650;6.888;2024-03-23T04:12:32;8.00;;;2.05;;
81960;SDS011;71462;50.650;6.888;2024-03-23T04:14:59;12.80;;;2.83;;
81960;SDS011;71462;50.650;6.888;2024-03-23T04:19:56;11.10;;;2.00;;
81960;SDS011;71462;50.650;6.888;2024-03-23T04:24:53;9.43;;;2.13;;
81960;SDS011;71462;50.650;6.888;2024-03-23T04:27:19;9.27;;;2.97;;
81960;SDS011;71462;50.650;6.888;2024-03-23T04:29:46;13.38;;;2.38;;
81960;SDS011;71462;50.650;6.888;2024-03-23T04:32:13;11.45;;;2.72;;
81960;SDS011;71462;50.650;6.888;2024-03-23T04:34:40;9.23;;;2.42;;
81960;SDS011;71462;50.650;6.888;2024-03-23T04:37:06;11.32;;;3.05;;
81960;SDS011;71462;50.650;6.888;2024-03-23T04:39:33;12.48;;;2.78;;
81960;SDS011;71462;50.650;6.888;2024-03-23T04:42:02;8.20;;;2.33;;
81960;SDS011;71462;50.650;6.888;2024-03-23T04:44:29;9.52;;;2.30;;
81960;SDS011;71462;50.650;6.888;2024-03-23T04:46:56;14.43;;;2.58;;
81960;SDS011;71462;50.650;6.888;2024-03-23T04:49:23;13.32;;;2.55;;
81960;SDS011;71462;50.650;6.888;2024-03-23T04:51:49;10.75;;;2.60;;
81960;SDS011;71462;50.650;6.888;2024-03-23T04:54:16;7.28;;;1.85;;
81960;SDS011;71462;50.650;6.888;2024-03-23T04:56:43;15.38;;;3.08;;
81960;SDS011;71462;50.650;6.888;2024-03-23T04:59:10;12.32;;;2.85;;
81960;SDS011;71462;50.650;6.888;2024-03-23T05:01:37;11.57;;;2.30;;
81960;SDS011;71462;50.650;6.888;2024-03-23T05:04:07;16.60;;;2.72;;
81960;SDS011;71462;50.650;6.888;2024-03-23T05:06:34;10.93;;;2.58;;
81960;SDS011;71462;50.650;6.888;2024-03-23T05:11:27;9.95;;;2.75;;
81960;SDS011;71462;50.650;6.888;2024-03-23T05:13:52;16.17;;;4.30;;
81960;SDS011;71462;50.650;6.888;2024-03-23T05:16:20;13.23;;;3.05;;
81960;SDS011;71462;50.650;6.888;2024-03-23T05:18:46;19.65;;;5.75;;
81960;SDS011;71462;50.650;6.888;2024-03-23T05:21:13;12.90;;;3.97;;
81960;SDS011;71462;50.650;6.888;2024-03-23T05:26:05;15.73;;;4.88;;
81960;SDS011;71462;50.650;6.888;2024-03-23T05:28:32;15.10;;;2.88;;
81960;SDS011;71462;50.650;6.888;2024-03-23T05:30:59;34.75;;;10.98;;
81960;SDS011;71462;50.650;6.888;2024-03-23T05:35:56;9.73;;;2.95;;
81960;SDS011;71462;50.650;6.888;2024-03-23T05:38:22;11.60;;;3.20;;
81960;SDS011;71462;50.650;6.888;2024-03-23T05:40:53;14.40;;;4.50;;
81960;SDS011;71462;50.650;6.888;2024-03-23T05:43:19;15.18;;;4.22;;
81960;SDS011;71462;50.650;6.888;2024-03-23T05:45:47;15.57;;;3.83;;
81960;SDS011;71462;50.650;6.888;2024-03-23T05:48:18;31.02;;;10.00;;
81960;SDS011;71462;50.650;6.888;2024-03-23T05:50:47;17.63;;;4.15;;
81960;SDS011;71462;50.650;6.888;2024-03-23T05:53:13;26.05;;;13.10;;
81960;SDS011;71462;50.650;6.888;2024-03-23T05:55:41;17.48;;;7.68;;
81960;SDS011;71462;50.650;6.888;2024-03-23T05:58:06;15.18;;;5.65;;
81960;SDS011;71462;50.650;6.888;2024-03-23T06:00:33;12.82;;;3.90;;
81960;SDS011;71462;50.650;6.888;2024-03-23T06:03:00;8.95;;;3.72;;
81960;SDS011;71462;50.650;6.888;2024-03-23T06:05:26;8.70;;;3.50;;
81960;SDS011;71462;50.650;6.888;2024-03-23T06:07:54;14.77;;;3.78;;
81960;SDS011;71462;50.650;6.888;2024-03-23T06:10:20;11.85;;;4.45;;
81960;SDS011;71462;50.650;6.888;2024-03-23T06:12:46;14.45;;;3.80;;
81960;SDS011;71462;50.650;6.888;2024-03-23T06:15:14;12.73;;;3.05;;
81960;SDS011;71462;50.650;6.888;2024-03-23T06:20:07;13.85;;;3.28;;
81960;SDS011;71462;50.650;6.888;2024-03-23T06:22:33;15.75;;;4.25;;
81960;SDS011;71462;50.650;6.888;2024-03-23T06:25:01;15.20;;;3.55;;
81960;SDS011;71462;50.650;6.888;2024-03-23T06:27:28;19.85;;;4.35;;
81960;SDS011;71462;50.650;6.888;2024-03-23T06:29:54;12.50;;;3.92;;
81960;SDS011;71462;50.650;6.888;2024-03-23T06:32:21;13.85;;;4.22;;
81960;SDS011;71462;50.650;6.888;2024-03-23T06:34:47;10.95;;;3.53;;
81960;SDS011;71462;50.650;6.888;2024-03-23T06:37:13;17.25;;;4.80;;
81960;SDS011;71462;50.650;6.888;2024-03-23T06:39:40;18.27;;;5.00;;
81960;SDS011;71462;50.650;6.888;2024-03-23T06:42:07;11.68;;;4.35;;
81960;SDS011;71462;50.650;6.888;2024-03-23T06:44:34;15.15;;;4.20;;
81960;SDS011;71462;50.650;6.888;2024-03-23T06:47:00;12.23;;;4.75;;
81960;SDS011;71462;50.650;6.888;2024-03-23T06:49:28;12.52;;;4.82;;
81960;SDS011;71462;50.650;6.888;2024-03-23T06:51:53;15.88;;;3.78;;
81960;SDS011;71462;50.650;6.888;2024-03-23T06:54:20;9.43;;;3.90;;
81960;SDS011;71462;50.650;6.888;2024-03-23T06:56:46;13.60;;;3.83;;
81960;SDS011;71462;50.650;6.888;2024-03-23T06:59:14;10.65;;;3.85;;
81960;SDS011;71462;50.650;6.888;2024-03-23T07:01:40;13.25;;;4.35;;
81960;SDS011;71462;50.650;6.888;2024-03-23T07:04:07;14.30;;;4.53;;
81960;SDS011;71462;50.650;6.888;2024-03-23T07:09:00;14.45;;;3.70;;
81960;SDS011;71462;50.650;6.888;2024-03-23T07:13:53;15.32;;;4.10;;
81960;SDS011;71462;50.650;6.888;2024-03-23T07:16:24;11.88;;;4.13;;
81960;SDS011;71462;50.650;6.888;2024-03-23T07:18:53;15.00;;;4.97;;
81960;SDS011;71462;50.650;6.888;2024-03-23T07:21:20;14.25;;;4.95;;
81960;SDS011;71462;50.650;6.888;2024-03-23T07:23:47;15.65;;;5.07;;
81960;SDS011;71462;50.650;6.888;2024-03-23T07:26:14;13.38;;;4.72;;
81960;SDS011;71462;50.650;6.888;2024-03-23T07:28:41;10.95;;;4.95;;
81960;SDS011;71462;50.650;6.888;2024-03-23T07:31:09;13.52;;;4.72;;
81960;SDS011;71462;50.650;6.888;2024-03-23T07:33:42;18.20;;;5.55;;
81960;SDS011;71462;50.650;6.888;2024-03-23T07:36:09;12.85;;;4.72;;
81960;SDS011;71462;50.650;6.888;2024-03-23T07:38:35;16.95;;;6.32;;
81960;SDS011;71462;50.650;6.888;2024-03-23T07:43:32;12.63;;;4.82;;
81960;SDS011;71462;50.650;6.888;2024-03-23T07:48:25;10.80;;;4.75;;
81960;SDS011;71462;50.650;6.888;2024-03-23T07:53:26;13.38;;;4.82;;
81960;SDS011;71462;50.650;6.888;2024-03-23T07:55:54;17.77;;;6.07;;
81960;SDS011;71462;50.650;6.888;2024-03-23T07:58:21;13.70;;;5.05;;
81960;SDS011;71462;50.650;6.888;2024-03-23T08:00:48;12.98;;;4.75;;
81960;SDS011;71462;50.650;6.888;2024-03-23T08:03:14;14.18;;;5.75;;
81960;SDS011;71462;50.650;6.888;2024-03-23T08:08:10;15.45;;;4.82;;
81960;SDS011;71462;50.650;6.888;2024-03-23T08:10:36;6.60;;;2.33;;
81960;SDS011;71462;50.650;6.888;2024-03-23T08:13:03;7.50;;;2.03;;
81960;SDS011;71462;50.650;6.888;2024-03-23T08:15:30;5.25;;;2.05;;
81960;SDS011;71462;50.650;6.888;2024-03-23T08:17:58;7.60;;;2.10;;
81960;SDS011;71462;50.650;6.888;2024-03-23T08:20:25;6.38;;;1.98;;
81960;SDS011;71462;50.650;6.888;2024-03-23T08:22:52;6.82;;;1.80;;
81960;SDS011;71462;50.650;6.888;2024-03-23T08:27:46;8.57;;;2.15;;
81960;SDS011;71462;50.650;6.888;2024-03-23T08:32:38;9.10;;;2.40;;
81960;SDS011;71462;50.650;6.888;2024-03-23T08:37:32;5.85;;;2.53;;
81960;SDS011;71462;50.650;6.888;2024-03-23T08:42:26;10.77;;;3.53;;
81960;SDS011;71462;50.650;6.888;2024-03-23T08:44:51;11.45;;;4.28;;
81960;SDS011;71462;50.650;6.888;2024-03-23T08:47:18;16.70;;;6.00;;
81960;SDS011;71462;50.650;6.888;2024-03-23T08:52:11;14.48;;;5.40;;
81960;SDS011;71462;50.650;6.888;2024-03-23T08:54:36;13.23;;;5.07;;
81960;SDS011;71462;50.650;6.888;2024-03-23T08:57:03;13.75;;;5.32;;
81960;SDS011;71462;50.650;6.888;2024-03-23T08:59:31;14.30;;;4.95;;
81960;SDS011;71462;50.650;6.888;2024-03-23T09:01:58;18.67;;;4.97;;
81960;SDS011;71462;50.650;6.888;2024-03-23T09:06:50;14.25;;;4.82;;
81960;SDS011;71462;50.650;6.888;2024-03-23T09:09:16;12.05;;;4.10;;
81960;SDS011;71462;50.650;6.888;2024-03-23T09:11:45;17.38;;;4.80;;
81960;SDS011;71462;50.650;6.888;2024-03-23T09:16:39;17.10;;;4.22;;
81960;SDS011;71462;50.650;6.888;2024-03-23T09:19:04;16.38;;;3.75;;
81960;SDS011;71462;50.650;6.888;2024-03-23T09:21:31;14.30;;;3.25;;
81960;SDS011;71462;50.650;6.888;2024-03-23T09:23:57;15.02;;;2.58;;
81960;SDS011;71462;50.650;6.888;2024-03-23T09:26:24;13.13;;;3.20;;
81960;SDS011;71462;50.650;6.888;2024-03-23T09:28:55;13.65;;;3.67;;
81960;SDS011;71462;50.650;6.888;2024-03-23T09:39:38;11.77;;;3.33;;
81960;SDS011;71462;50.650;6.888;2024-03-23T09:42:05;10.45;;;3.03;;
81960;SDS011;71462;50.650;6.888;2024-03-23T09:44:32;10.02;;;2.75;;
81960;SDS011;71462;50.650;6.888;2024-03-23T09:46:58;9.60;;;2.65;;
81960;SDS011;71462;50.650;6.888;2024-03-23T09:49:24;8.75;;;2.63;;
81960;SDS011;71462;50.650;6.888;2024-03-23T09:51:51;8.82;;;2.40;;
81960;SDS011;71462;50.650;6.888;2024-03-23T09:56:45;10.07;;;2.30;;
81960;SDS011;71462;50.650;6.888;2024-03-23T09:59:11;13.30;;;2.55;;
81960;SDS011;71462;50.650;6.888;2024-03-23T10:01:38;10.40;;;2.90;;
81960;SDS011;71462;50.650;6.888;2024-03-23T10:04:04;11.40;;;2.60;;
81960;SDS011;71462;50.650;6.888;2024-03-23T10:06:32;12.00;;;2.72;;
81960;SDS011;71462;50.650;6.888;2024-03-23T10:11:24;9.98;;;2.85;;
81960;SDS011;71462;50.650;6.888;2024-03-23T10:13:52;10.30;;;3.08;;
81960;SDS011;71462;50.650;6.888;2024-03-23T10:16:23;6.47;;;2.42;;
81960;SDS011;71462;50.650;6.888;2024-03-23T10:18:49;3.92;;;1.33;;
81960;SDS011;71462;50.650;6.888;2024-03-23T10:21:16;8.82;;;1.88;;
81960;SDS011;71462;50.650;6.888;2024-03-23T10:23:43;8.00;;;2.17;;
81960;SDS011;71462;50.650;6.888;2024-03-23T10:26:14;6.10;;;1.80;;
81960;SDS011;71462;50.650;6.888;2024-03-23T10:28:55;3.90;;;1.77;;
81960;SDS011;71462;50.650;6.888;2024-03-23T10:31:25;6.53;;;2.15;;
81960;SDS011;71462;50.650;6.888;2024-03-23T10:33:51;2.10;;;0.98;;
81960;SDS011;71462;50.650;6.888;2024-03-23T10:36:20;3.47;;;1.52;;
81960;SDS011;71462;50.650;6.888;2024-03-23T10:38:46;2.75;;;1.08;;
81960;SDS011;71462;50.650;6.888;2024-03-23T10:41:14;2.85;;;1.30;;
81960;SDS011;71462;50.650;6.888;2024-03-23T10:43:39;3.63;;;1.10;;
81960;SDS011;71462;50.650;6.888;2024-03-23T10:46:07;2.53;;;0.95;;
81960;SDS011;71462;50.650;6.888;2024-03-23T10:48:34;3.35;;;1.25;;
81960;SDS011;71462;50.650;6.888;2024-03-23T10:51:01;2.78;;;0.90;;
81960;SDS011;71462;50.650;6.888;2024-03-23T10:53:28;2.65;;;1.30;;
81960;SDS011;71462;50.650;6.888;2024-03-23T10:55:55;2.33;;;1.08;;
81960;SDS011;71462;50.650;6.888;2024-03-23T10:58:23;3.58;;;1.48;;
81960;SDS011;71462;50.650;6.888;2024-03-23T11:00:52;6.28;;;2.15;;
81960;SDS011;71462;50.650;6.888;2024-03-23T11:03:36;4.75;;;1.92;;
81960;SDS011;71462;50.650;6.888;2024-03-23T11:06:04;6.45;;;2.25;;
81960;SDS011;71462;50.650;6.888;2024-03-23T11:08:31;6.65;;;2.65;;
81960;SDS011;71462;50.650;6.888;2024-03-23T11:11:14;6.40;;;2.63;;
81960;SDS011;71462;50.650;6.888;2024-03-23T11:13:42;5.25;;;2.75;;
81960;SDS011;71462;50.650;6.888;2024-03-23T11:16:15;8.15;;;3.10;;
81960;SDS011;71462;50.650;6.888;2024-03-23T11:18:43;5.35;;;2.90;;
81960;SDS011;71462;50.650;6.888;2024-03-23T11:21:10;5.50;;;1.90;;
81960;SDS011;71462;50.650;6.888;2024-03-23T11:26:42;6.22;;;1.67;;
81960;SDS011;71462;50.650;6.888;2024-03-23T11:29:11;5.03;;;2.50;;
81960;SDS011;71462;50.650;6.888;2024-03-23T11:31:45;5.97;;;1.95;;
81960;SDS011;71462;50.650;6.888;2024-03-23T11:34:12;7.63;;;2.17;;
81960;SDS011;71462;50.650;6.888;2024-03-23T11:36:38;6.75;;;2.42;;
81960;SDS011;71462;50.650;6.888;2024-03-23T11:41:46;5.68;;;2.58;;
81960;SDS011;71462;50.650;6.888;2024-03-23T11:44:16;9.60;;;2.70;;
81960;SDS011;71462;50.650;6.888;2024-03-23T11:46:43;6.47;;;2.80;;
81960;SDS011;71462;50.650;6.888;2024-03-23T11:49:19;9.68;;;3.67;;
81960;SDS011;71462;50.650;6.888;2024-03-23T11:51:47;9.52;;;3.53;;
81960;SDS011;71462;50.650;6.888;2024-03-23T11:56:39;6.72;;;3.15;;
81960;SDS011;71462;50.650;6.888;2024-03-23T12:01:33;6.75;;;2.97;;
81960;SDS011;71462;50.650;6.888;2024-03-23T12:06:26;6.60;;;2.65;;
81960;SDS011;71462;50.650;6.888;2024-03-23T12:11:18;8.45;;;2.60;;
81960;SDS011;71462;50.650;6.888;2024-03-23T12:13:45;10.80;;;2.60;;
81960;SDS011;71462;50.650;6.888;2024-03-23T12:16:16;6.55;;;2.60;;
81960;SDS011;71462;50.650;6.888;2024-03-23T12:18:43;6.40;;;2.97;;
81960;SDS011;71462;50.650;6.888;2024-03-23T12:21:11;7.00;;;2.70;;
81960;SDS011;71462;50.650;6.888;2024-03-23T12:26:05;8.20;;;2.95;;
81960;SDS011;71462;50.650;6.888;2024-03-23T12:28:31;13.23;;;2.97;;
81960;SDS011;71462;50.650;6.888;2024-03-23T12:30:58;9.45;;;3.42;;
81960;SDS011;71462;50.650;6.888;2024-03-23T12:35:52;11.00;;;3.50;;
81960;SDS011;71462;50.650;6.888;2024-03-23T12:38:19;7.57;;;3.25;;
81960;SDS011;71462;50.650;6.888;2024-03-23T12:40:46;7.22;;;3.17;;
81960;SDS011;71462;50.650;6.888;2024-03-23T12:43:12;7.20;;;2.88;;
81960;SDS011;71462;50.650;6.888;2024-03-23T12:45:39;12.13;;;4.85;;
81960;SDS011;71462;50.650;6.888;2024-03-23T12:50:33;9.73;;;3.30;;
81960;SDS011;71462;50.650;6.888;2024-03-23T12:52:59;9.07;;;3.17;;
81960;SDS011;71462;50.650;6.888;2024-03-23T12:55:26;8.02;;;2.97;;
81960;SDS011;71462;50.650;6.888;2024-03-23T13:00:18;6.57;;;2.35;;
81960;SDS011;71462;50.650;6.888;2024-03-23T13:02:45;9.07;;;2.65;;
81960;SDS011;71462;50.650;6.888;2024-03-23T13:05:12;7.55;;;3.13;;
81960;SDS011;71462;50.650;6.888;2024-03-23T13:10:06;4.43;;;1.85;;
81960;SDS011;71462;50.650;6.888;2024-03-23T13:12:32;6.00;;;1.60;;
81960;SDS011;71462;50.650;6.888;2024-03-23T13:14:59;6.55;;;2.03;;
81960;SDS011;71462;50.650;6.888;2024-03-23T13:17:25;4.00;;;1.73;;
81960;SDS011;71462;50.650;6.888;2024-03-23T13:19:53;4.13;;;2.00;;
81960;SDS011;71462;50.650;6.888;2024-03-23T13:22:19;3.55;;;1.50;;
81960;SDS011;71462;50.650;6.888;2024-03-23T13:24:47;4.85;;;1.70;;
81960;SDS011;71462;50.650;6.888;2024-03-23T13:27:13;5.70;;;2.03;;
81960;SDS011;71462;50.650;6.888;2024-03-23T13:29:40;7.72;;;1.90;;
81960;SDS011;71462;50.650;6.888;2024-03-23T13:32:06;3.65;;;1.42;;
81960;SDS011;71462;50.650;6.888;2024-03-23T13:34:34;7.88;;;1.70;;
81960;SDS011;71462;50.650;6.888;2024-03-23T13:37:00;6.45;;;2.15;;
81960;SDS011;71462;50.650;6.888;2024-03-23T13:39:28;5.43;;;2.35;;
81960;SDS011;71462;50.650;6.888;2024-03-23T13:44:22;5.90;;;2.00;;
81960;SDS011;71462;50.650;6.888;2024-03-23T13:46:48;7.50;;;2.40;;
81960;SDS011;71462;50.650;6.888;2024-03-23T13:49:23;6.38;;;2.03;;
81960;SDS011;71462;50.650;6.888;2024-03-23T13:51:51;3.95;;;1.55;;
81960;SDS011;71462;50.650;6.888;2024-03-23T13:54:18;7.28;;;2.00;;
81960;SDS011;71462;50.650;6.888;2024-03-23T13:56:44;4.30;;;1.77;;
81960;SDS011;71462;50.650;6.888;2024-03-23T13:59:12;5.28;;;1.75;;
81960;SDS011;71462;50.650;6.888;2024-03-23T14:01:38;5.30;;;2.10;;
81960;SDS011;71462;50.650;6.888;2024-03-23T14:04:05;6.60;;;2.50;;
81960;SDS011;71462;50.650;6.888;2024-03-23T14:08:58;5.55;;;2.42;;
81960;SDS011;71462;50.650;6.888;2024-03-23T14:13:51;8.35;;;2.40;;
81960;SDS011;71462;50.650;6.888;2024-03-23T14:16:19;8.02;;;2.22;;
81960;SDS011;71462;50.650;6.888;2024-03-23T14:18:47;5.10;;;1.80;;
81960;SDS011;71462;50.650;6.888;2024-03-23T14:21:13;11.15;;;8.15;;
81960;SDS011;71462;50.650;6.888;2024-03-23T14:23:40;9.85;;;5.35;;
81960;SDS011;71462;50.650;6.888;2024-03-23T14:26:06;10.00;;;6.97;;
81960;SDS011;71462;50.650;6.888;2024-03-23T14:28:33;7.15;;;3.83;;
81960;SDS011;71462;50.650;6.888;2024-03-23T14:31:00;5.38;;;1.60;;
81960;SDS011;71462;50.650;6.888;2024-03-23T14:33:30;4.93;;;1.35;;
81960;SDS011;71462;50.650;6.888;2024-03-23T14:35:57;4.07;;;1.30;;
81960;SDS011;71462;50.650;6.888;2024-03-23T14:38:24;3.03;;;1.50;;
81960;SDS011;71462;50.650;6.888;2024-03-23T14:43:18;3.30;;;0.90;;
81960;SDS011;71462;50.650;6.888;2024-03-23T14:48:33;6.30;;;1.38;;
81960;SDS011;71462;50.650;6.888;2024-03-23T14:51:00;2.75;;;1.50;;
81960;SDS011;71462;50.650;6.888;2024-03-23T14:53:30;5.28;;;2.00;;
81960;SDS011;71462;50.650;6.888;2024-03-23T14:58:22;3.17;;;1.58;;
81960;SDS011;71462;50.650;6.888;2024-03-23T15:00:50;1.98;;;1.00;;
81960;SDS011;71462;50.650;6.888;2024-03-23T15:03:17;5.25;;;1.20;;
81960;SDS011;71462;50.650;6.888;2024-03-23T15:05:52;3.00;;;1.13;;
81960;SDS011;71462;50.650;6.888;2024-03-23T15:08:20;1.75;;;1.13;;
81960;SDS011;71462;50.650;6.888;2024-03-23T15:13:12;1.77;;;1.00;;
81960;SDS011;71462;50.650;6.888;2024-03-23T15:18:08;4.28;;;1.50;;
81960;SDS011;71462;50.650;6.888;2024-03-23T15:20:34;2.75;;;1.05;;
81960;SDS011;71462;50.650;6.888;2024-03-23T15:23:03;3.17;;;1.42;;
81960;SDS011;71462;50.650;6.888;2024-03-23T15:25:29;3.40;;;1.42;;
81960;SDS011;71462;50.650;6.888;2024-03-23T15:27:56;3.70;;;1.10;;
81960;SDS011;71462;50.650;6.888;2024-03-23T15:30:23;4.15;;;2.33;;
81960;SDS011;71462;50.650;6.888;2024-03-23T15:32:49;3.13;;;0.98;;
81960;SDS011;71462;50.650;6.888;2024-03-23T15:37:42;4.53;;;1.52;;
81960;SDS011;71462;50.650;6.888;2024-03-23T15:40:10;2.88;;;1.30;;
81960;SDS011;71462;50.650;6.888;2024-03-23T15:42:38;5.18;;;1.90;;
81960;SDS011;71462;50.650;6.888;2024-03-23T15:47:32;3.88;;;1.10;;
81960;SDS011;71462;50.650;6.888;2024-03-23T15:49:58;7.40;;;1.58;;
81960;SDS011;71462;50.650;6.888;2024-03-23T15:52:25;2.50;;;1.10;;
81960;SDS011;71462;50.650;6.888;2024-03-23T15:54:51;4.35;;;1.38;;
81960;SDS011;71462;50.650;6.888;2024-03-23T15:57:19;8.95;;;1.88;;
81960;SDS011;71462;50.650;6.888;2024-03-23T15:59:44;5.20;;;1.77;;
81960;SDS011;71462;50.650;6.888;2024-03-23T16:02:11;4.95;;;2.05;;
81960;SDS011;71462;50.650;6.888;2024-03-23T16:04:37;4.15;;;1.50;;
81960;SDS011;71462;50.650;6.888;2024-03-23T16:07:04;2.60;;;1.40;;
81960;SDS011;71462;50.650;6.888;2024-03-23T16:09:30;2.40;;;1.23;;
81960;SDS011;71462;50.650;6.888;2024-03-23T16:11:56;6.63;;;2.20;;
81960;SDS011;71462;50.650;6.888;2024-03-23T16:16:50;13.63;;;5.40;;
81960;SDS011;71462;50.650;6.888;2024-03-23T16:19:16;5.40;;;3.33;;
81960;SDS011;71462;50.650;6.888;2024-03-23T16:21:42;6.38;;;2.97;;
81960;SDS011;71462;50.650;6.888;2024-03-23T16:26:36;7.18;;;2.97;;
81960;SDS011;71462;50.650;6.888;2024-03-23T16:29:02;6.50;;;2.15;;
81960;SDS011;71462;50.650;6.888;2024-03-23T16:31:30;5.05;;;1.90;;
81960;SDS011;71462;50.650;6.888;2024-03-23T16:33:56;5.65;;;2.40;;
81960;SDS011;71462;50.650;6.888;2024-03-23T16:36:23;4.88;;;1.90;;
81960;SDS011;71462;50.650;6.888;2024-03-23T16:38:50;6.90;;;1.65;;
81960;SDS011;71462;50.650;6.888;2024-03-23T16:41:17;4.55;;;2.03;;
81960;SDS011;71462;50.650;6.888;2024-03-23T16:46:11;7.53;;;3.10;;
81960;SDS011;71462;50.650;6.888;2024-03-23T16:48:40;6.50;;;2.50;;
81960;SDS011;71462;50.650;6.888;2024-03-23T16:51:08;5.82;;;2.75;;
81960;SDS011;71462;50.650;6.888;2024-03-23T16:53:34;9.40;;;2.95;;
81960;SDS011;71462;50.650;6.888;2024-03-23T16:56:04;9.32;;;3.58;;
81960;SDS011;71462;50.650;6.888;2024-03-23T16:58:33;19.35;;;11.23;;
81960;SDS011;71462;50.650;6.888;2024-03-23T17:01:02;10.35;;;5.55;;
81960;SDS011;71462;50.650;6.888;2024-03-23T17:03:28;4.60;;;2.55;;
81960;SDS011;71462;50.650;6.888;2024-03-23T17:05:56;7.18;;;4.00;;
81960;SDS011;71462;50.650;6.888;2024-03-23T17:08:22;5.20;;;2.40;;
81960;SDS011;71462;50.650;6.888;2024-03-23T17:10:49;5.70;;;2.40;;
81960;SDS011;71462;50.650;6.888;2024-03-23T17:15:41;5.55;;;2.40;;
81960;SDS011;71462;50.650;6.888;2024-03-23T17:18:08;9.15;;;3.40;;
81960;SDS011;71462;50.650;6.888;2024-03-23T17:20:35;6.22;;;2.65;;
81960;SDS011;71462;50.650;6.888;2024-03-23T17:25:28;4.68;;;2.60;;
81960;SDS011;71462;50.650;6.888;2024-03-23T17:30:21;5.38;;;2.17;;
81960;SDS011;71462;50.650;6.888;2024-03-23T17:35:13;6.22;;;2.55;;
81960;SDS011;71462;50.650;6.888;2024-03-23T17:37:40;5.45;;;2.83;;
81960;SDS011;71462;50.650;6.888;2024-03-23T17:40:10;7.93;;;3.15;;
81960;SDS011;71462;50.650;6.888;2024-03-23T17:42:37;6.50;;;2.53;;
81960;SDS011;71462;50.650;6.888;2024-03-23T17:45:05;12.65;;;4.63;;
81960;SDS011;71462;50.650;6.888;2024-03-23T17:47:36;5.32;;;2.20;;
81960;SDS011;71462;50.650;6.888;2024-03-23T17:50:04;6.78;;;2.30;;
81960;SDS011;71462;50.650;6.888;2024-03-23T17:52:31;7.07;;;3.30;;
81960;SDS011;71462;50.650;6.888;2024-03-23T17:54:57;6.00;;;2.40;;
81960;SDS011;71462;50.650;6.888;2024-03-23T17:57:25;10.15;;;4.50;;
81960;SDS011;71462;50.650;6.888;2024-03-23T17:59:52;22.35;;;8.95;;
81960;SDS011;71462;50.650;6.888;2024-03-23T18:02:18;18.20;;;7.20;;
81960;SDS011;71462;50.650;6.888;2024-03-23T18:04:46;23.80;;;9.15;;
81960;SDS011;71462;50.650;6.888;2024-03-23T18:07:12;29.27;;;12.13;;
81960;SDS011;71462;50.650;6.888;2024-03-23T18:09:39;30.85;;;11.50;;